sensor_id;sensor_type;location;lat;lon;timestamp;pressure;altitude;pressure_sealevel;temperature;humidity
19600;BME280;9947;57.722;12.012;2023-04-24T00:01:49;99804.56;;;7.40;100.00
19600;BME280;9947;57.722;12.012;2023-04-24T00:04:19;99795.53;;;7.41;100.00
19600;BME280;9947;57.722;12.012;2023-04-24T00:06:47;99787.22;;;7.44;100.00
19600;BME280;9947;57.722;12.012;2023-04-24T00:09:19;99789.91;;;7.44;100.00
19600;BME280;9947;57.722;12.012;2023-04-24T00:11:50;99802.00;;;7.50;100.00
19600;BME280;9947;57.722;12.012;2023-04-24T00:14:24;99801.03;;;7.51;100.00
19600;BME280;9947;57.722;12.012;2023-04-24T00:16:53;99789.28;;;7.52;100.00
19600;BME280;9947;57.722;12.012;2023-04-24T00:19:21;99791.13;;;7.51;100.00
19600;BME280;9947;57.722;12.012;2023-04-24T00:24:26;99782.69;;;7.45;100.00
19600;BME280;9947;57.722;12.012;2023-04-24T00:26:58;99789.41;;;7.39;100.00
19600;BME280;9947;57.722;12.012;2023-04-24T00:29:27;99783.56;;;7.34;100.00
19600;BME280;9947;57.722;12.012;2023-04-24T00:31:58;99785.88;;;7.38;100.00
19600;BME280;9947;57.722;12.012;2023-04-24T00:34:25;99786.72;;;7.39;100.00
19600;BME280;9947;57.722;12.012;2023-04-24T00:36:55;99782.47;;;7.36;100.00
19600;BME280;9947;57.722;12.012;2023-04-24T00:39:25;99775.25;;;7.37;100.00
19600;BME280;9947;57.722;12.012;2023-04-24T00:41:52;99765.59;;;7.34;100.00
19600;BME280;9947;57.722;12.012;2023-04-24T00:44:20;99770.47;;;7.29;100.00
19600;BME280;9947;57.722;12.012;2023-04-24T00:46:52;99768.97;;;7.25;100.00
19600;BME280;9947;57.722;12.012;2023-04-24T00:49:22;99767.16;;;7.26;100.00
19600;BME280;9947;57.722;12.012;2023-04-24T00:51:52;99769.47;;;7.19;100.00
19600;BME280;9947;57.722;12.012;2023-04-24T00:54:24;99771.53;;;7.16;100.00
19600;BME280;9947;57.722;12.012;2023-04-24T00:56:54;99769.09;;;7.13;100.00
19600;BME280;9947;57.722;12.012;2023-04-24T00:59:22;99767.25;;;7.13;100.00
19600;BME280;9947;57.722;12.012;2023-04-24T01:01:56;99768.25;;;7.12;100.00
19600;BME280;9947;57.722;12.012;2023-04-24T01:04:25;99764.69;;;7.11;100.00
19600;BME280;9947;57.722;12.012;2023-04-24T01:06:54;99767.16;;;7.15;100.00
19600;BME280;9947;57.722;12.012;2023-04-24T01:09:23;99759.69;;;7.18;100.00
19600;BME280;9947;57.722;12.012;2023-04-24T01:11:52;99761.03;;;7.24;100.00
19600;BME280;9947;57.722;12.012;2023-04-24T01:14:24;99756.66;;;7.23;100.00
19600;BME280;9947;57.722;12.012;2023-04-24T01:16:56;99758.09;;;7.27;100.00
19600;BME280;9947;57.722;12.012;2023-04-24T01:19:24;99771.44;;;7.28;100.00
19600;BME280;9947;57.722;12.012;2023-04-24T01:21:58;99760.59;;;7.30;100.00
19600;BME280;9947;57.722;12.012;2023-04-24T01:24:32;99766.06;;;7.28;100.00
19600;BME280;9947;57.722;12.012;2023-04-24T01:27:02;99775.25;;;7.37;100.00
19600;BME280;9947;57.722;12.012;2023-04-24T01:29:34;99769.00;;;7.36;100.00
19600;BME280;9947;57.722;12.012;2023-04-24T01:32:04;99772.31;;;7.40;100.00
19600;BME280;9947;57.722;12.012;2023-04-24T01:34:34;99765.59;;;7.34;100.00
19600;BME280;9947;57.722;12.012;2023-04-24T01:37:03;99761.94;;;7.35;100.00
19600;BME280;9947;57.722;12.012;2023-04-24T01:39:32;99768.16;;;7.36;100.00
19600;BME280;9947;57.722;12.012;2023-04-24T01:41:59;99753.75;;;7.37;100.00
19600;BME280;9947;57.722;12.012;2023-04-24T01:44:28;99759.97;;;7.37;100.00
19600;BME280;9947;57.722;12.012;2023-04-24T01:47:00;99754.72;;;7.36;100.00
19600;BME280;9947;57.722;12.012;2023-04-24T01:49:31;99762.50;;;7.28;100.00
19600;BME280;9947;57.722;12.012;2023-04-24T01:52:06;99759.56;;;7.20;100.00
19600;BME280;9947;57.722;12.012;2023-04-24T01:54:40;99755.19;;;7.19;100.00
19600;BME280;9947;57.722;12.012;2023-04-24T01:57:10;99758.22;;;7.14;100.00
19600;BME280;9947;57.722;12.012;2023-04-24T01:59:39;99746.00;;;7.10;100.00
19600;BME280;9947;57.722;12.012;2023-04-24T02:02:11;99744.78;;;7.14;100.00
19600;BME280;9947;57.722;12.012;2023-04-24T02:04:40;99743.41;;;6.97;100.00
19600;BME280;9947;57.722;12.012;2023-04-24T02:07:08;99750.59;;;6.86;100.00
19600;BME280;9947;57.722;12.012;2023-04-24T02:09:39;99755.22;;;6.84;100.00
19600;BME280;9947;57.722;12.012;2023-04-24T02:12:07;99759.25;;;6.78;100.00
19600;BME280;9947;57.722;12.012;2023-04-24T02:14:39;99752.16;;;6.77;100.00
19600;BME280;9947;57.722;12.012;2023-04-24T02:17:09;99745.53;;;6.70;100.00
19600;BME280;9947;57.722;12.012;2023-04-24T02:22:07;99724.88;;;6.59;100.00
19600;BME280;9947;57.722;12.012;2023-04-24T02:24:34;99718.41;;;6.62;100.00
19600;BME280;9947;57.722;12.012;2023-04-24T02:27:04;99722.44;;;6.67;100.00
19600;BME280;9947;57.722;12.012;2023-04-24T02:29:34;99718.78;;;6.68;100.00
19600;BME280;9947;57.722;12.012;2023-04-24T02:32:02;99713.78;;;6.64;100.00
19600;BME280;9947;57.722;12.012;2023-04-24T02:37:07;99723.47;;;6.77;100.00
19600;BME280;9947;57.722;12.012;2023-04-24T02:42:00;99732.41;;;6.89;100.00
19600;BME280;9947;57.722;12.012;2023-04-24T02:44:32;99734.97;;;7.02;100.00
19600;BME280;9947;57.722;12.012;2023-04-24T02:47:00;99721.81;;;7.10;100.00
19600;BME280;9947;57.722;12.012;2023-04-24T02:49:27;99709.59;;;7.17;100.00
19600;BME280;9947;57.722;12.012;2023-04-24T02:51:57;99716.31;;;7.23;100.00
19600;BME280;9947;57.722;12.012;2023-04-24T02:54:24;99705.19;;;7.27;100.00
19600;BME280;9947;57.722;12.012;2023-04-24T02:58:48;99708.41;;;7.32;100.00
19600;BME280;9947;57.722;12.012;2023-04-24T03:03:53;99702.63;;;7.26;100.00
19600;BME280;9947;57.722;12.012;2023-04-24T03:06:20;99709.00;;;7.25;100.00
19600;BME280;9947;57.722;12.012;2023-04-24T03:08:50;99707.53;;;7.21;100.00
19600;BME280;9947;57.722;12.012;2023-04-24T03:11:17;99698.25;;;7.14;100.00
19600;BME280;9947;57.722;12.012;2023-04-24T03:13:45;99704.84;;;7.09;100.00
19600;BME280;9947;57.722;12.012;2023-04-24T03:18:50;99705.94;;;7.07;100.00
19600;BME280;9947;57.722;12.012;2023-04-24T03:21:21;99696.78;;;7.09;100.00
19600;BME280;9947;57.722;12.012;2023-04-24T03:26:17;99699.34;;;7.11;100.00
19600;BME280;9947;57.722;12.012;2023-04-24T03:28:46;99696.53;;;7.13;100.00
19600;BME280;9947;57.722;12.012;2023-04-24T03:31:18;99700.69;;;7.17;100.00
19600;BME280;9947;57.722;12.012;2023-04-24T03:33:48;99691.28;;;7.11;100.00
19600;BME280;9947;57.722;12.012;2023-04-24T03:36:15;99691.78;;;7.16;100.00
19600;BME280;9947;57.722;12.012;2023-04-24T03:38:44;99695.06;;;7.20;100.00
19600;BME280;9947;57.722;12.012;2023-04-24T03:41:11;99680.16;;;7.16;100.00
19600;BME280;9947;57.722;12.012;2023-04-24T03:43:38;99677.47;;;7.04;100.00
19600;BME280;9947;57.722;12.012;2023-04-24T03:46:09;99674.16;;;7.01;100.00
19600;BME280;9947;57.722;12.012;2023-04-24T03:48:36;99677.38;;;7.06;100.00
19600;BME280;9947;57.722;12.012;2023-04-24T03:53:28;99672.84;;;7.18;100.00
19600;BME280;9947;57.722;12.012;2023-04-24T03:55:58;99675.03;;;7.24;100.00
19600;BME280;9947;57.722;12.012;2023-04-24T03:58:25;99675.28;;;7.21;100.00
19600;BME280;9947;57.722;12.012;2023-04-24T04:00:55;99676.41;;;7.29;100.00
19600;BME280;9947;57.722;12.012;2023-04-24T04:03:29;99671.34;;;7.47;100.00
19600;BME280;9947;57.722;12.012;2023-04-24T04:05:56;99667.09;;;7.56;100.00
19600;BME280;9947;57.722;12.012;2023-04-24T04:08:24;99669.88;;;7.65;100.00
19600;BME280;9947;57.722;12.012;2023-04-24T04:10:52;99673.28;;;7.67;100.00
19600;BME280;9947;57.722;12.012;2023-04-24T04:13:20;99681.09;;;7.70;100.00
19600;BME280;9947;57.722;12.012;2023-04-24T04:18:38;99674.63;;;8.05;100.00
19600;BME280;9947;57.722;12.012;2023-04-24T04:21:06;99675.66;;;7.93;100.00
19600;BME280;9947;57.722;12.012;2023-04-24T04:23:35;99672.50;;;7.88;100.00
19600;BME280;9947;57.722;12.012;2023-04-24T04:26:06;99672.03;;;7.71;100.00
19600;BME280;9947;57.722;12.012;2023-04-24T04:28:35;99668.16;;;7.64;100.00
19600;BME280;9947;57.722;12.012;2023-04-24T04:31:07;99651.94;;;7.55;100.00
19600;BME280;9947;57.722;12.012;2023-04-24T04:33:35;99649.59;;;7.61;100.00
19600;BME280;9947;57.722;12.012;2023-04-24T04:38:31;99659.56;;;7.70;100.00
19600;BME280;9947;57.722;12.012;2023-04-24T04:41:00;99668.38;;;7.72;100.00
19600;BME280;9947;57.722;12.012;2023-04-24T04:43:28;99668.63;;;7.69;100.00
19600;BME280;9947;57.722;12.012;2023-04-24T04:45:58;99670.56;;;7.79;100.00
19600;BME280;9947;57.722;12.012;2023-04-24T04:48:26;99678.63;;;7.79;100.00
19600;BME280;9947;57.722;12.012;2023-04-24T04:50:54;99675.59;;;7.72;100.00
19600;BME280;9947;57.722;12.012;2023-04-24T04:53:21;99672.56;;;7.65;100.00
19600;BME280;9947;57.722;12.012;2023-04-24T04:55:53;99669.94;;;7.86;100.00
19600;BME280;9947;57.722;12.012;2023-04-24T04:58:33;99665.50;;;7.96;100.00
19600;BME280;9947;57.722;12.012;2023-04-24T05:01:00;99667.84;;;7.90;100.00
19600;BME280;9947;57.722;12.012;2023-04-24T05:03:29;99663.84;;;7.84;100.00
19600;BME280;9947;57.722;12.012;2023-04-24T05:05:58;99673.19;;;8.01;100.00
19600;BME280;9947;57.722;12.012;2023-04-24T05:08:30;99672.63;;;7.86;100.00
19600;BME280;9947;57.722;12.012;2023-04-24T05:11:01;99671.41;;;7.90;100.00
19600;BME280;9947;57.722;12.012;2023-04-24T05:13:28;99663.47;;;7.89;100.00
19600;BME280;9947;57.722;12.012;2023-04-24T05:15:58;99660.31;;;8.04;100.00
19600;BME280;9947;57.722;12.012;2023-04-24T05:18:25;99662.44;;;8.01;100.00
19600;BME280;9947;57.722;12.012;2023-04-24T05:20:53;99664.84;;;8.04;100.00
19600;BME280;9947;57.722;12.012;2023-04-24T05:23:22;99659.47;;;8.04;100.00
19600;BME280;9947;57.722;12.012;2023-04-24T05:25:50;99658.06;;;8.21;100.00
19600;BME280;9947;57.722;12.012;2023-04-24T05:28:20;99649.34;;;8.28;100.00
19600;BME280;9947;57.722;12.012;2023-04-24T05:30:48;99656.56;;;8.28;100.00
19600;BME280;9947;57.722;12.012;2023-04-24T05:33:16;99660.25;;;8.27;100.00
19600;BME280;9947;57.722;12.012;2023-04-24T05:35:45;99659.41;;;8.38;100.00
19600;BME280;9947;57.722;12.012;2023-04-24T05:38:16;99658.66;;;8.24;100.00
19600;BME280;9947;57.722;12.012;2023-04-24T05:40:45;99658.34;;;8.18;100.00
19600;BME280;9947;57.722;12.012;2023-04-24T05:43:15;99661.28;;;8.15;100.00
19600;BME280;9947;57.722;12.012;2023-04-24T05:45:47;99655.50;;;8.19;100.00
19600;BME280;9947;57.722;12.012;2023-04-24T05:48:15;99659.19;;;8.18;100.00
19600;BME280;9947;57.722;12.012;2023-04-24T05:50:42;99659.66;;;8.23;100.00
19600;BME280;9947;57.722;12.012;2023-04-24T05:53:10;99657.41;;;8.28;100.00
19600;BME280;9947;57.722;12.012;2023-04-24T05:55:39;99650.78;;;8.32;100.00
19600;BME280;9947;57.722;12.012;2023-04-24T06:00:32;99648.16;;;8.21;100.00
19600;BME280;9947;57.722;12.012;2023-04-24T06:03:03;99653.88;;;8.28;100.00
19600;BME280;9947;57.722;12.012;2023-04-24T06:05:32;99661.34;;;8.36;100.00
19600;BME280;9947;57.722;12.012;2023-04-24T06:08:01;99665.22;;;8.43;100.00
19600;BME280;9947;57.722;12.012;2023-04-24T06:10:28;99669.78;;;8.63;100.00
19600;BME280;9947;57.722;12.012;2023-04-24T06:12:55;99664.13;;;8.66;100.00
19600;BME280;9947;57.722;12.012;2023-04-24T06:15:28;99663.53;;;8.62;100.00
19600;BME280;9947;57.722;12.012;2023-04-24T06:17:57;99655.19;;;8.45;100.00
19600;BME280;9947;57.722;12.012;2023-04-24T06:20:25;99652.63;;;8.43;100.00
19600;BME280;9947;57.722;12.012;2023-04-24T06:22:57;99652.88;;;8.40;100.00
19600;BME280;9947;57.722;12.012;2023-04-24T06:25:25;99643.50;;;8.23;100.00
19600;BME280;9947;57.722;12.012;2023-04-24T06:27:53;99645.25;;;8.45;100.00
19600;BME280;9947;57.722;12.012;2023-04-24T06:30:21;99636.06;;;8.48;100.00
19600;BME280;9947;57.722;12.012;2023-04-24T06:32:51;99642.19;;;8.50;100.00
19600;BME280;9947;57.722;12.012;2023-04-24T06:35:19;99641.41;;;8.59;100.00
19600;BME280;9947;57.722;12.012;2023-04-24T06:37:49;99634.69;;;8.74;100.00
19600;BME280;9947;57.722;12.012;2023-04-24T06:40:20;99637.41;;;8.84;100.00
19600;BME280;9947;57.722;12.012;2023-04-24T06:42:48;99642.88;;;8.93;100.00
19600;BME280;9947;57.722;12.012;2023-04-24T06:45:15;99643.59;;;8.95;100.00
19600;BME280;9947;57.722;12.012;2023-04-24T06:47:52;99646.75;;;9.01;100.00
19600;BME280;9947;57.722;12.012;2023-04-24T06:50:21;99648.13;;;9.25;100.00
19600;BME280;9947;57.722;12.012;2023-04-24T06:52:50;99641.81;;;9.46;100.00
19600;BME280;9947;57.722;12.012;2023-04-24T06:55:17;99639.59;;;9.61;100.00
19600;BME280;9947;57.722;12.012;2023-04-24T06:57:44;99634.84;;;9.93;100.00
19600;BME280;9947;57.722;12.012;2023-04-24T07:00:12;99638.28;;;10.43;100.00
19600;BME280;9947;57.722;12.012;2023-04-24T07:02:40;99652.94;;;10.50;100.00
19600;BME280;9947;57.722;12.012;2023-04-24T07:07:56;99662.88;;;10.50;100.00
19600;BME280;9947;57.722;12.012;2023-04-24T07:10:25;99661.31;;;10.28;100.00
19600;BME280;9947;57.722;12.012;2023-04-24T07:12:54;99665.53;;;10.11;100.00
19600;BME280;9947;57.722;12.012;2023-04-24T07:15:22;99672.63;;;10.12;100.00
19600;BME280;9947;57.722;12.012;2023-04-24T07:17:49;99663.34;;;9.86;100.00
19600;BME280;9947;57.722;12.012;2023-04-24T07:20:16;99665.78;;;9.79;100.00
19600;BME280;9947;57.722;12.012;2023-04-24T07:22:44;99658.44;;;9.51;100.00
19600;BME280;9947;57.722;12.012;2023-04-24T07:25:16;99666.66;;;9.40;100.00
19600;BME280;9947;57.722;12.012;2023-04-24T07:27:45;99663.81;;;9.41;100.00
19600;BME280;9947;57.722;12.012;2023-04-24T07:32:44;99664.94;;;9.08;100.00
19600;BME280;9947;57.722;12.012;2023-04-24T07:37:42;99669.28;;;9.00;100.00
19600;BME280;9947;57.722;12.012;2023-04-24T07:40:12;99672.44;;;9.05;100.00
19600;BME280;9947;57.722;12.012;2023-04-24T07:42:41;99678.69;;;9.05;100.00
19600;BME280;9947;57.722;12.012;2023-04-24T07:45:09;99690.38;;;9.15;100.00
19600;BME280;9947;57.722;12.012;2023-04-24T07:50:14;99680.78;;;9.02;100.00
19600;BME280;9947;57.722;12.012;2023-04-24T07:52:41;99686.16;;;8.92;100.00
19600;BME280;9947;57.722;12.012;2023-04-24T07:57:48;99700.91;;;8.98;100.00
19600;BME280;9947;57.722;12.012;2023-04-24T08:00:15;99694.09;;;8.93;100.00
19600;BME280;9947;57.722;12.012;2023-04-24T08:02:43;99696.78;;;8.93;100.00
19600;BME280;9947;57.722;12.012;2023-04-24T08:05:10;99697.97;;;8.59;100.00
19600;BME280;9947;57.722;12.012;2023-04-24T08:07:38;99699.53;;;8.29;100.00
19600;BME280;9947;57.722;12.012;2023-04-24T08:12:35;99697.53;;;8.11;100.00
19600;BME280;9947;57.722;12.012;2023-04-24T08:15:05;99685.28;;;8.07;100.00
19600;BME280;9947;57.722;12.012;2023-04-24T08:17:33;99677.97;;;7.97;100.00
19600;BME280;9947;57.722;12.012;2023-04-24T08:20:01;99684.97;;;7.89;100.00
19600;BME280;9947;57.722;12.012;2023-04-24T08:22:33;99678.88;;;7.87;100.00
19600;BME280;9947;57.722;12.012;2023-04-24T08:25:00;99671.91;;;7.84;100.00
19600;BME280;9947;57.722;12.012;2023-04-24T08:27:27;99670.22;;;7.83;100.00
19600;BME280;9947;57.722;12.012;2023-04-24T08:29:55;99666.75;;;7.92;100.00
19600;BME280;9947;57.722;12.012;2023-04-24T08:32:23;99669.63;;;7.68;100.00
19600;BME280;9947;57.722;12.012;2023-04-24T08:34:52;99666.41;;;7.74;100.00
19600;BME280;9947;57.722;12.012;2023-04-24T08:37:23;99662.31;;;7.59;100.00
19600;BME280;9947;57.722;12.012;2023-04-24T08:39:51;99659.31;;;7.73;100.00
19600;BME280;9947;57.722;12.012;2023-04-24T08:42:20;99654.09;;;7.61;100.00
19600;BME280;9947;57.722;12.012;2023-04-24T08:44:49;99654.72;;;7.64;100.00
19600;BME280;9947;57.722;12.012;2023-04-24T08:47:16;99655.19;;;7.69;100.00
19600;BME280;9947;57.722;12.012;2023-04-24T08:49:52;99641.38;;;7.63;100.00
19600;BME280;9947;57.722;12.012;2023-04-24T08:52:21;99644.16;;;7.72;100.00
19600;BME280;9947;57.722;12.012;2023-04-24T08:54:49;99644.19;;;7.61;100.00
19600;BME280;9947;57.722;12.012;2023-04-24T08:57:20;99640.75;;;7.70;100.00
19600;BME280;9947;57.722;12.012;2023-04-24T08:59:51;99642.13;;;7.65;100.00
19600;BME280;9947;57.722;12.012;2023-04-24T09:02:20;99629.38;;;7.67;100.00
19600;BME280;9947;57.722;12.012;2023-04-24T09:04:48;99643.09;;;7.53;100.00
19600;BME280;9947;57.722;12.012;2023-04-24T09:07:22;99649.94;;;7.68;100.00
19600;BME280;9947;57.722;12.012;2023-04-24T09:09:54;99640.28;;;7.65;100.00
19600;BME280;9947;57.722;12.012;2023-04-24T09:12:24;99639.09;;;7.36;100.00
19600;BME280;9947;57.722;12.012;2023-04-24T09:14:56;99635.56;;;7.35;100.00
19600;BME280;9947;57.722;12.012;2023-04-24T09:17:25;99627.84;;;7.42;100.00
19600;BME280;9947;57.722;12.012;2023-04-24T09:19:54;99615.84;;;7.57;100.00
19600;BME280;9947;57.722;12.012;2023-04-24T09:22:23;99617.47;;;7.37;100.00
19600;BME280;9947;57.722;12.012;2023-04-24T09:25:02;99615.25;;;7.42;100.00
19600;BME280;9947;57.722;12.012;2023-04-24T09:27:31;99617.00;;;7.32;100.00
19600;BME280;9947;57.722;12.012;2023-04-24T09:29:59;99611.03;;;7.29;100.00
19600;BME280;9947;57.722;12.012;2023-04-24T09:32:28;99612.34;;;7.34;100.00
19600;BME280;9947;57.722;12.012;2023-04-24T09:35:06;99611.81;;;7.52;100.00
19600;BME280;9947;57.722;12.012;2023-04-24T09:37:37;99608.41;;;7.50;100.00
19600;BME280;9947;57.722;12.012;2023-04-24T09:42:30;99601.59;;;7.78;100.00
19600;BME280;9947;57.722;12.012;2023-04-24T09:44:58;99611.47;;;7.88;100.00
19600;BME280;9947;57.722;12.012;2023-04-24T09:47:25;99603.75;;;7.95;100.00
19600;BME280;9947;57.722;12.012;2023-04-24T09:49:57;99609.06;;;8.06;100.00
19600;BME280;9947;57.722;12.012;2023-04-24T09:52:25;99602.41;;;8.21;100.00
19600;BME280;9947;57.722;12.012;2023-04-24T09:54:54;99595.47;;;8.60;100.00
19600;BME280;9947;57.722;12.012;2023-04-24T09:57:22;99597.41;;;8.58;100.00
19600;BME280;9947;57.722;12.012;2023-04-24T09:59:53;99604.88;;;8.66;100.00
19600;BME280;9947;57.722;12.012;2023-04-24T10:02:20;99590.28;;;8.99;100.00
19600;BME280;9947;57.722;12.012;2023-04-24T10:04:54;99584.84;;;8.89;100.00
19600;BME280;9947;57.722;12.012;2023-04-24T10:07:22;99580.53;;;8.77;100.00
19600;BME280;9947;57.722;12.012;2023-04-24T10:10:02;99572.66;;;8.64;100.00
19600;BME280;9947;57.722;12.012;2023-04-24T10:12:29;99579.66;;;8.77;100.00
19600;BME280;9947;57.722;12.012;2023-04-24T10:15:01;99578.75;;;8.87;100.00
19600;BME280;9947;57.722;12.012;2023-04-24T10:17:32;99579.72;;;8.86;100.00
19600;BME280;9947;57.722;12.012;2023-04-24T10:20:01;99578.63;;;8.68;100.00
19600;BME280;9947;57.722;12.012;2023-04-24T10:22:31;99570.00;;;8.74;100.00
19600;BME280;9947;57.722;12.012;2023-04-24T10:25:06;99571.81;;;8.64;100.00
19600;BME280;9947;57.722;12.012;2023-04-24T10:27:34;99564.38;;;8.56;100.00
19600;BME280;9947;57.722;12.012;2023-04-24T10:30:03;99544.63;;;8.77;100.00
19600;BME280;9947;57.722;12.012;2023-04-24T10:32:30;99540.03;;;8.98;100.00
19600;BME280;9947;57.722;12.012;2023-04-24T10:35:00;99542.25;;;9.23;100.00
19600;BME280;9947;57.722;12.012;2023-04-24T10:37:36;99528.63;;;9.15;100.00
19600;BME280;9947;57.722;12.012;2023-04-24T10:45:30;99522.44;;;9.53;100.00
19600;BME280;9947;57.722;12.012;2023-04-24T10:47:59;99526.28;;;9.99;100.00
19600;BME280;9947;57.722;12.012;2023-04-24T10:50:43;99516.31;;;10.19;100.00
19600;BME280;9947;57.722;12.012;2023-04-24T10:53:16;99517.13;;;10.86;100.00
19600;BME280;9947;57.722;12.012;2023-04-24T10:55:50;99508.84;;;11.15;100.00
19600;BME280;9947;57.722;12.012;2023-04-24T10:58:23;99507.13;;;11.23;100.00
19600;BME280;9947;57.722;12.012;2023-04-24T11:01:00;99508.63;;;11.08;100.00
19600;BME280;9947;57.722;12.012;2023-04-24T11:06:00;99507.56;;;10.91;100.00
19600;BME280;9947;57.722;12.012;2023-04-24T11:08:42;99503.56;;;11.23;100.00
19600;BME280;9947;57.722;12.012;2023-04-24T11:14:01;99488.94;;;11.33;100.00
19600;BME280;9947;57.722;12.012;2023-04-24T11:16:30;99480.69;;;11.35;100.00
19600;BME280;9947;57.722;12.012;2023-04-24T11:19:01;99489.44;;;11.47;100.00
19600;BME280;9947;57.722;12.012;2023-04-24T11:21:39;99493.13;;;11.28;100.00
19600;BME280;9947;57.722;12.012;2023-04-24T11:24:48;99491.13;;;11.30;100.00
19600;BME280;9947;57.722;12.012;2023-04-24T11:27:20;99487.66;;;12.09;100.00
19600;BME280;9947;57.722;12.012;2023-04-24T11:29:58;99471.78;;;12.14;100.00
19600;BME280;9947;57.722;12.012;2023-04-24T11:32:30;99480.03;;;12.30;100.00
19600;BME280;9947;57.722;12.012;2023-04-24T11:34:58;99464.94;;;12.53;100.00
19600;BME280;9947;57.722;12.012;2023-04-24T11:37:29;99480.19;;;12.88;100.00
19600;BME280;9947;57.722;12.012;2023-04-24T11:39:57;99465.06;;;12.86;100.00
19600;BME280;9947;57.722;12.012;2023-04-24T11:42:26;99481.41;;;12.34;100.00
19600;BME280;9947;57.722;12.012;2023-04-24T11:44:55;99467.53;;;12.11;100.00
19600;BME280;9947;57.722;12.012;2023-04-24T11:47:34;99471.94;;;12.12;100.00
19600;BME280;9947;57.722;12.012;2023-04-24T11:50:01;99470.44;;;12.18;100.00
19600;BME280;9947;57.722;12.012;2023-04-24T11:52:31;99472.94;;;12.11;100.00
19600;BME280;9947;57.722;12.012;2023-04-24T11:55:00;99476.72;;;12.44;100.00
19600;BME280;9947;57.722;12.012;2023-04-24T11:57:29;99469.81;;;11.98;100.00
19600;BME280;9947;57.722;12.012;2023-04-24T11:59:59;99466.81;;;12.27;100.00
19600;BME280;9947;57.722;12.012;2023-04-24T12:02:35;99464.72;;;12.81;100.00
19600;BME280;9947;57.722;12.012;2023-04-24T12:05:02;99469.19;;;12.56;100.00
19600;BME280;9947;57.722;12.012;2023-04-24T12:07:40;99458.72;;;12.69;100.00
19600;BME280;9947;57.722;12.012;2023-04-24T12:12:37;99457.63;;;12.88;100.00
19600;BME280;9947;57.722;12.012;2023-04-24T12:15:07;99452.34;;;12.78;100.00
19600;BME280;9947;57.722;12.012;2023-04-24T12:17:41;99456.00;;;13.03;100.00
19600;BME280;9947;57.722;12.012;2023-04-24T12:22:47;99446.69;;;12.72;100.00
19600;BME280;9947;57.722;12.012;2023-04-24T12:25:15;99438.66;;;12.88;100.00
19600;BME280;9947;57.722;12.012;2023-04-24T12:27:46;99435.31;;;13.02;100.00
19600;BME280;9947;57.722;12.012;2023-04-24T12:30:17;99451.88;;;12.91;100.00
19600;BME280;9947;57.722;12.012;2023-04-24T12:32:47;99445.97;;;12.61;100.00
19600;BME280;9947;57.722;12.012;2023-04-24T12:35:19;99450.97;;;12.48;100.00
19600;BME280;9947;57.722;12.012;2023-04-24T12:37:56;99438.28;;;12.49;100.00
19600;BME280;9947;57.722;12.012;2023-04-24T12:40:43;99442.00;;;12.48;100.00
19600;BME280;9947;57.722;12.012;2023-04-24T12:43:26;99438.94;;;12.43;100.00
19600;BME280;9947;57.722;12.012;2023-04-24T12:45:53;99440.59;;;12.35;100.00
19600;BME280;9947;57.722;12.012;2023-04-24T12:48:22;99439.19;;;12.57;100.00
19600;BME280;9947;57.722;12.012;2023-04-24T12:50:49;99438.94;;;12.77;100.00
19600;BME280;9947;57.722;12.012;2023-04-24T12:53:19;99435.13;;;12.53;100.00
19600;BME280;9947;57.722;12.012;2023-04-24T12:55:47;99426.84;;;13.05;100.00
19600;BME280;9947;57.722;12.012;2023-04-24T12:58:19;99425.59;;;13.34;100.00
19600;BME280;9947;57.722;12.012;2023-04-24T13:00:48;99424.47;;;13.02;100.00
19600;BME280;9947;57.722;12.012;2023-04-24T13:03:16;99431.03;;;13.00;100.00
19600;BME280;9947;57.722;12.012;2023-04-24T13:05:46;99431.34;;;12.80;100.00
19600;BME280;9947;57.722;12.012;2023-04-24T13:08:13;99432.97;;;12.73;100.00
19600;BME280;9947;57.722;12.012;2023-04-24T13:10:40;99439.75;;;12.69;100.00
19600;BME280;9947;57.722;12.012;2023-04-24T13:13:07;99430.91;;;12.59;100.00
19600;BME280;9947;57.722;12.012;2023-04-24T13:15:35;99427.94;;;12.18;100.00
19600;BME280;9947;57.722;12.012;2023-04-24T13:18:04;99432.44;;;12.01;100.00
19600;BME280;9947;57.722;12.012;2023-04-24T13:20:33;99427.94;;;11.92;100.00
19600;BME280;9947;57.722;12.012;2023-04-24T13:23:02;99418.59;;;11.87;100.00
19600;BME280;9947;57.722;12.012;2023-04-24T13:25:36;99428.38;;;11.80;100.00
19600;BME280;9947;57.722;12.012;2023-04-24T13:28:04;99424.47;;;11.82;100.00
19600;BME280;9947;57.722;12.012;2023-04-24T13:30:37;99415.34;;;11.83;100.00
19600;BME280;9947;57.722;12.012;2023-04-24T13:33:03;99414.84;;;12.06;100.00
19600;BME280;9947;57.722;12.012;2023-04-24T13:35:32;99416.69;;;12.31;100.00
19600;BME280;9947;57.722;12.012;2023-04-24T13:37:59;99415.66;;;12.58;100.00
19600;BME280;9947;57.722;12.012;2023-04-24T13:40:33;99413.44;;;12.61;100.00
19600;BME280;9947;57.722;12.012;2023-04-24T13:43:01;99414.44;;;12.52;100.00
19600;BME280;9947;57.722;12.012;2023-04-24T13:45:29;99402.44;;;12.63;100.00
19600;BME280;9947;57.722;12.012;2023-04-24T13:47:59;99406.88;;;12.72;100.00
19600;BME280;9947;57.722;12.012;2023-04-24T13:50:27;99409.13;;;12.85;100.00
19600;BME280;9947;57.722;12.012;2023-04-24T13:52:56;99400.44;;;12.73;100.00
19600;BME280;9947;57.722;12.012;2023-04-24T13:55:26;99405.97;;;12.55;100.00
19600;BME280;9947;57.722;12.012;2023-04-24T13:57:58;99407.94;;;12.45;100.00
19600;BME280;9947;57.722;12.012;2023-04-24T14:00:25;99400.63;;;12.38;100.00
19600;BME280;9947;57.722;12.012;2023-04-24T14:02:55;99399.78;;;12.37;100.00
19600;BME280;9947;57.722;12.012;2023-04-24T14:05:23;99400.50;;;12.47;100.00
19600;BME280;9947;57.722;12.012;2023-04-24T14:07:52;99393.09;;;12.49;100.00
19600;BME280;9947;57.722;12.012;2023-04-24T14:10:19;99404.38;;;12.45;100.00
19600;BME280;9947;57.722;12.012;2023-04-24T14:12:47;99394.03;;;12.40;100.00
19600;BME280;9947;57.722;12.012;2023-04-24T14:15:20;99389.59;;;12.31;100.00